createdAt,value
2023-04-15T00:03:35.023Z,40.1
2023-04-15T00:09:40.551Z,40.2
2023-04-15T00:15:46.738Z,40.2
2023-04-15T00:21:52.518Z,40.2
2023-04-15T00:27:58.132Z,40.2
2023-04-15T00:34:03.686Z,40.2
2023-04-15T00:40:08.842Z,40.2
2023-04-15T00:46:14.232Z,40.2
2023-04-15T00:52:20.185Z,40.2
2023-04-15T00:58:25.763Z,40.2
2023-04-15T01:04:31.779Z,40.3
2023-04-15T01:10:37.301Z,40.3
2023-04-15T01:16:42.886Z,40.2
2023-04-15T01:22:48.466Z,40.3
2023-04-15T01:28:53.825Z,40.3
2023-04-15T01:34:59.386Z,40.3
2023-04-15T01:41:04.972Z,40.3
2023-04-15T01:47:10.531Z,40.3
2023-04-15T01:53:16.132Z,40.4
2023-04-15T01:59:21.690Z,40.3
2023-04-15T02:05:27.062Z,40.4
2023-04-15T02:11:32.826Z,40.4
2023-04-15T02:17:38.016Z,40.4
2023-04-15T02:23:43.645Z,40.4
2023-04-15T02:29:49.202Z,40.4
2023-04-15T02:35:55.009Z,40.4
2023-04-15T02:42:00.769Z,40.4
2023-04-15T02:48:06.679Z,40.4
2023-04-15T02:54:12.136Z,40.4
2023-04-15T03:00:17.660Z,40.4
2023-04-15T03:06:22.961Z,40.5
2023-04-15T03:12:28.602Z,40.5
2023-04-15T03:18:34.186Z,40.5
2023-04-15T03:24:39.533Z,40.5
2023-04-15T03:30:44.889Z,40.5
2023-04-15T03:36:50.623Z,40.5
2023-04-15T03:42:56.461Z,40.5
2023-04-15T03:49:01.992Z,40.5
2023-04-15T03:55:07.863Z,40.6
2023-04-15T04:01:13.650Z,40.6
2023-04-15T04:07:19.192Z,40.6
2023-04-15T04:13:24.728Z,40.6
2023-04-15T04:19:30.240Z,40.6
2023-04-15T04:25:36.021Z,40.6
2023-04-15T04:31:41.883Z,40.6
2023-04-15T04:37:47.576Z,40.6
2023-04-15T04:43:52.991Z,40.6
2023-04-15T04:49:58.560Z,40.6
2023-04-15T04:56:03.689Z,40.6
2023-04-15T05:02:09.696Z,40.6
2023-04-15T05:08:14.914Z,40.7
2023-04-15T05:14:20.805Z,40.6
2023-04-15T05:20:27.626Z,40.6
2023-04-15T05:26:33.407Z,40.6
2023-04-15T05:32:39.214Z,40.6
2023-04-15T05:38:44.337Z,40.5
2023-04-15T05:44:49.704Z,40.5
2023-04-15T05:50:55.074Z,40.4
2023-04-15T05:57:00.445Z,40.2
2023-04-15T06:03:06.323Z,39.7
2023-04-15T06:09:12.000Z,39.3
2023-04-15T06:15:17.200Z,39.2
2023-04-15T06:21:22.536Z,39.1
2023-04-15T06:27:28.294Z,39
2023-04-15T06:33:33.462Z,39
2023-04-15T06:39:39.848Z,39
2023-04-15T06:45:45.440Z,39
2023-04-15T06:51:50.597Z,38.9
2023-04-15T06:57:56.578Z,38.9
2023-04-15T07:04:02.174Z,38.9
2023-04-15T07:10:07.509Z,38.8
2023-04-15T07:16:13.154Z,38.8
2023-04-15T07:22:18.344Z,38.8
2023-04-15T07:28:23.453Z,38.7
2023-04-15T07:34:30.792Z,38.6
2023-04-15T07:40:36.834Z,38.5
2023-04-15T07:46:42.188Z,38.5
2023-04-15T07:52:47.764Z,38.6
2023-04-15T07:58:52.919Z,38.5
2023-04-15T08:04:58.529Z,38.5
2023-04-15T08:11:03.776Z,38.3
2023-04-15T08:17:08.474Z,38.3
2023-04-15T08:23:13.990Z,38.1
2023-04-15T08:29:19.341Z,38.1
2023-04-15T08:35:24.718Z,38.3
2023-04-15T08:41:29.898Z,38.3
2023-04-15T08:47:35.467Z,38.4
2023-04-15T08:53:41.040Z,38.4
2023-04-15T08:59:46.460Z,38.6
2023-04-15T09:05:53.405Z,38.5
2023-04-15T09:11:58.978Z,38.5
2023-04-15T09:18:04.344Z,38.4
2023-04-15T09:24:10.122Z,38.3
2023-04-15T09:30:15.695Z,38.2
2023-04-15T09:36:20.716Z,38.2
2023-04-15T09:42:26.273Z,38.1
2023-04-15T09:48:31.569Z,38
2023-04-15T09:54:36.961Z,38
2023-04-15T10:00:41.960Z,38.1
2023-04-15T10:06:47.273Z,38.1
2023-04-15T10:12:52.488Z,38.2
2023-04-15T10:18:57.656Z,38.2
2023-04-15T10:25:03.217Z,38.1
2023-04-15T10:31:08.570Z,38.1
2023-04-15T10:37:14.110Z,38
2023-04-15T10:43:19.904Z,38
2023-04-15T10:49:25.059Z,38
2023-04-15T10:55:30.213Z,37.8
2023-04-15T11:01:35.610Z,37.8
2023-04-15T11:07:41.173Z,37.8
2023-04-15T11:13:46.541Z,37.7
2023-04-15T11:19:52.505Z,37.7
2023-04-15T11:25:57.665Z,37.7
2023-04-15T11:32:03.256Z,37.9
2023-04-15T11:38:08.463Z,38.1
2023-04-15T11:44:13.971Z,38
2023-04-15T11:50:19.407Z,38
2023-04-15T11:56:25.336Z,38
2023-04-15T12:02:31.211Z,38.1
2023-04-15T12:08:36.704Z,38
2023-04-15T12:14:42.259Z,38.2
2023-04-15T12:20:47.258Z,38.1
2023-04-15T12:26:53.038Z,38
2023-04-15T12:32:58.428Z,38.1
2023-04-15T12:39:03.979Z,37.9
2023-04-15T12:45:09.293Z,37.8
2023-04-15T12:51:15.290Z,37.8
2023-04-15T12:57:20.295Z,37.6
2023-04-15T13:03:25.740Z,37.6
2023-04-15T13:09:31.573Z,37.8
2023-04-15T13:15:36.745Z,37.8
2023-04-15T13:21:42.322Z,37.8
2023-04-15T13:27:48.343Z,37.8
2023-04-15T13:33:53.870Z,37.8
2023-04-15T13:39:59.512Z,37.7
2023-04-15T13:46:05.057Z,37.8
2023-04-15T13:52:10.599Z,37.7
2023-04-15T13:58:16.363Z,37.8
2023-04-15T14:04:22.481Z,37.7
2023-04-15T14:10:27.941Z,37.7
2023-04-15T14:16:33.085Z,37.7
2023-04-15T14:22:38.866Z,37.5
2023-04-15T14:28:44.022Z,37.6
2023-04-15T14:34:49.399Z,37.5
2023-04-15T14:40:54.192Z,37.5
2023-04-15T14:46:59.366Z,37.6
2023-04-15T14:53:04.686Z,37.5
2023-04-15T14:59:10.110Z,37.6
2023-04-15T15:05:15.917Z,37.4
2023-04-15T15:11:21.393Z,37.6
2023-04-15T15:17:27.194Z,37.5
2023-04-15T15:23:32.380Z,37.5
2023-04-15T15:29:37.917Z,37.6
2023-04-15T15:35:43.480Z,37.6
2023-04-15T15:41:48.704Z,37.7
2023-04-15T15:47:54.450Z,37.6
2023-04-15T15:53:59.667Z,37.6
2023-04-15T16:00:14.653Z,37.6
2023-04-15T16:06:20.013Z,37.7
2023-04-15T16:12:25.519Z,37.7
2023-04-15T16:18:31.781Z,37.8
2023-04-15T16:24:38.303Z,37.8
2023-04-15T16:30:43.460Z,37.9
2023-04-15T16:36:48.856Z,37.8
2023-04-15T16:42:54.202Z,37.9
2023-04-15T16:48:59.772Z,37.9
2023-04-15T16:55:04.959Z,38
2023-04-15T17:01:10.175Z,38
2023-04-15T17:07:15.468Z,38
2023-04-15T17:13:20.887Z,38.1
2023-04-15T17:19:26.867Z,38
2023-04-15T17:25:32.184Z,38.1
2023-04-15T17:31:37.790Z,38.2
2023-04-15T17:37:43.135Z,38.2
2023-04-15T17:43:48.483Z,38.1
2023-04-15T17:49:53.683Z,38.2
2023-04-15T17:55:58.865Z,38.2
2023-04-15T18:02:04.254Z,38.3
2023-04-15T18:08:09.358Z,38.3
2023-04-15T18:14:26.951Z,38.3
2023-04-15T18:20:36.274Z,38.3
2023-04-15T18:26:41.080Z,38.3
2023-04-15T18:32:46.857Z,38.4
2023-04-15T18:38:52.371Z,38.4
2023-04-15T18:44:57.535Z,38.5
2023-04-15T18:51:02.699Z,38.5
2023-04-15T18:57:08.483Z,38.5
2023-04-15T19:03:13.735Z,38.5
2023-04-15T19:09:19.215Z,38.5
2023-04-15T19:15:24.779Z,38.6
2023-04-15T19:21:30.577Z,38.6
2023-04-15T19:27:35.950Z,38.7
2023-04-15T19:33:41.504Z,38.7
2023-04-15T19:39:46.665Z,38.7
2023-04-15T19:45:52.341Z,38.7
2023-04-15T19:51:58.431Z,38.8
2023-04-15T19:58:04.006Z,38.8
2023-04-15T20:04:09.427Z,38.8
2023-04-15T20:10:16.805Z,38.8
2023-04-15T20:16:22.731Z,38.8
2023-04-15T20:22:28.405Z,38.8
2023-04-15T20:28:34.394Z,38.9
2023-04-15T20:34:39.736Z,38.9
2023-04-15T20:40:44.730Z,38.9
2023-04-15T20:46:50.094Z,39
2023-04-15T20:52:55.055Z,38.9
2023-04-15T20:59:00.391Z,39
2023-04-15T21:05:05.960Z,39
2023-04-15T21:11:11.474Z,39
2023-04-15T21:17:17.261Z,39
2023-04-15T21:23:22.625Z,39
2023-04-15T21:29:28.204Z,39.1
2023-04-15T21:35:33.560Z,39.1
2023-04-15T21:41:38.775Z,39.1
2023-04-15T21:48:10.605Z,39.1
2023-04-15T21:54:16.151Z,39.1
2023-04-15T22:00:21.665Z,39.2
2023-04-15T22:06:27.226Z,39.2
2023-04-15T22:12:32.845Z,39.2
2023-04-15T22:18:38.582Z,39.2
2023-04-15T22:24:44.051Z,39.3
2023-04-15T22:30:49.582Z,39.3
2023-04-15T22:36:54.740Z,39.3
2023-04-15T22:43:00.116Z,39.3
2023-04-15T22:49:05.149Z,39.4
2023-04-15T22:55:11.044Z,39.3
2023-04-15T23:01:16.169Z,39.4
2023-04-15T23:07:21.527Z,39.4
2023-04-15T23:13:26.686Z,39.5
2023-04-15T23:19:31.921Z,39.5
2023-04-15T23:25:37.420Z,39.5
2023-04-15T23:31:42.942Z,39.5
2023-04-15T23:37:48.410Z,39.5
2023-04-15T23:43:53.415Z,39.5
2023-04-15T23:49:58.887Z,39.6
2023-04-15T23:56:04.257Z,39.6
